Time;durP1;ratioP1;P1;durP2;ratioP2;P2;SDS_P1;SDS_P2;PMS_P1;PMS_P2;Temp;Humidity;BMP_temperature;BMP_pressure;BME280_temperature;BME280_humidity;BME280_pressure;Samples;Min_cycle;Max_cycle;Signal;HPM_P1;HPM_P2
2022/11/19 00:01:31;;;;;;;0.67;0.53;;;6.50;99.90;;;;;;4160263;28;20042;-61
2022/11/19 00:03:34;;;;;;;0.97;0.40;;;6.50;99.90;;;;;;4163790;28;20075;-60
2022/11/19 00:05:40;;;;;;;2.83;0.67;;;6.40;99.90;;;;;;4174981;28;20048;-63
2022/11/19 00:07:41;;;;;;;1.37;0.60;;;6.40;99.90;;;;;;4166075;28;20083;-63
2022/11/19 00:09:42;;;;;;;2.00;0.80;;;6.30;99.90;;;;;;4159921;28;20038;-63
2022/11/19 00:14:03;;;;;;;2.80;1.10;;;6.20;99.90;;;;;;4160950;28;20041;-61
2022/11/19 00:16:08;;;;;;;1.00;0.60;;;6.20;99.90;;;;;;4161560;28;20156;-62
2022/11/19 00:18:09;;;;;;;0.60;0.60;;;6.10;99.90;;;;;;4160099;28;20543;-64
2022/11/19 00:20:10;;;;;;;0.63;0.50;;;6.20;99.90;;;;;;4168329;28;20048;-62
2022/11/19 00:22:11;;;;;;;0.53;0.30;;;6.20;99.90;;;;;;4194393;28;20102;-62
2022/11/19 00:24:12;;;;;;;0.80;0.40;;;6.10;99.90;;;;;;4194063;28;20032;-65
2022/11/19 00:26:14;;;;;;;0.20;0.07;;;6.10;99.90;;;;;;4184181;28;20038;-65
2022/11/19 00:28:15;;;;;;;0.20;0.20;;;6.10;99.90;;;;;;4172713;28;21180;-62
2022/11/19 00:30:16;;;;;;;0.20;0.20;;;6.10;99.90;;;;;;4162980;28;20037;-66
2022/11/19 00:32:17;;;;;;;1.53;0.30;;;6.10;99.90;;;;;;4160022;28;20045;-61
2022/11/19 00:34:18;;;;;;;0.30;0.20;;;6.10;99.90;;;;;;4173376;28;20378;-61
2022/11/19 00:36:20;;;;;;;0.30;0.20;;;6.00;99.90;;;;;;4175541;28;20368;-65
2022/11/19 00:38:21;;;;;;;0.20;0.10;;;6.00;99.90;;;;;;4176638;28;20064;-62
2022/11/19 00:40:23;;;;;;;0.97;0.20;;;6.00;99.90;;;;;;4159203;28;20506;-66
2022/11/19 00:42:24;;;;;;;0.40;0.10;;;6.00;99.90;;;;;;4177779;28;20037;-61
2022/11/19 00:44:25;;;;;;;0.57;0.10;;;6.00;99.90;;;;;;4176725;28;20033;-62
2022/11/19 00:46:29;;;;;;;1.43;0.30;;;5.90;99.90;;;;;;4161396;28;20045;-66
2022/11/19 00:48:30;;;;;;;0.30;0.10;;;5.90;99.90;;;;;;4159784;28;20049;-61
2022/11/19 00:50:31;;;;;;;0.60;0.30;;;5.80;99.90;;;;;;4160717;28;20429;-64
2022/11/19 00:52:32;;;;;;;0.93;0.10;;;5.70;99.90;;;;;;4161638;28;20029;-66
2022/11/19 00:54:33;;;;;;;0.20;0.20;;;5.70;99.90;;;;;;4160661;28;20041;-63
2022/11/19 00:56:34;;;;;;;0.73;0.40;;;5.70;99.90;;;;;;4169503;28;20048;-63
2022/11/19 00:58:36;;;;;;;1.53;0.53;;;5.60;99.90;;;;;;4168174;28;20049;-62
2022/11/19 01:00:38;;;;;;;0.43;0.10;;;5.50;99.90;;;;;;4161535;28;20535;-66
2022/11/19 01:02:39;;;;;;;0.20;0.20;;;5.50;99.90;;;;;;4167534;28;20103;-65
2022/11/19 01:04:40;;;;;;;2.20;0.60;;;5.50;99.90;;;;;;4174733;28;20472;-67
2022/11/19 01:06:41;;;;;;;1.93;0.83;;;5.40;99.90;;;;;;4169098;28;20111;-62
2022/11/19 01:08:42;;;;;;;1.00;0.50;;;5.40;99.90;;;;;;4162625;28;20033;-62
2022/11/19 01:10:44;;;;;;;1.07;0.63;;;5.40;99.90;;;;;;4161734;28;20036;-64
2022/11/19 01:15:05;;;;;;;0.40;0.17;;;5.40;99.90;;;;;;4160342;28;20029;-64
2022/11/19 01:17:07;;;;;;;0.23;0.10;;;5.30;99.90;;;;;;4160824;28;20037;-62
2022/11/19 01:19:10;;;;;;;0.57;0.23;;;5.30;99.90;;;;;;4161467;28;20083;-62
2022/11/19 01:21:12;;;;;;;1.80;0.20;;;5.20;99.90;;;;;;4161312;28;20103;-63
2022/11/19 01:23:13;;;;;;;0.10;0.00;;;5.20;99.90;;;;;;4159540;28;20096;-61
2022/11/19 01:25:15;;;;;;;0.50;0.10;;;5.10;99.90;;;;;;4160520;28;20046;-63
2022/11/19 01:27:16;;;;;;;0.43;0.10;;;5.10;99.90;;;;;;4169481;28;20682;-61
2022/11/19 01:29:17;;;;;;;0.30;0.10;;;5.00;99.90;;;;;;4171776;28;20096;-61
2022/11/19 01:31:21;;;;;;;0.30;0.10;;;5.00;99.90;;;;;;4160949;28;20025;-63
2022/11/19 01:33:22;;;;;;;0.10;0.10;;;5.00;99.90;;;;;;4160673;28;20091;-65
2022/11/19 01:35:24;;;;;;;0.50;0.20;;;4.90;99.90;;;;;;4160434;28;20042;-63
2022/11/19 01:37:25;;;;;;;0.40;0.13;;;4.90;99.90;;;;;;4162447;28;20091;-63
2022/11/19 01:39:26;;;;;;;2.20;0.37;;;4.80;99.90;;;;;;4161217;28;20029;-66
2022/11/19 01:41:30;;;;;;;0.50;0.17;;;4.80;99.90;;;;;;4164998;28;20753;-67
2022/11/19 01:43:49;;;;;;;0.20;0.10;;;4.70;99.90;;;;;;4172470;28;20463;-62
2022/11/19 01:45:53;;;;;;;0.30;0.10;;;4.70;99.90;;;;;;4162935;28;20051;-61
2022/11/19 01:47:57;;;;;;;0.93;0.07;;;4.60;99.90;;;;;;4170228;28;20079;-67
2022/11/19 01:49:59;;;;;;;0.20;0.10;;;4.60;99.90;;;;;;4163111;28;20025;-63
2022/11/19 01:52:01;;;;;;;0.10;0.00;;;4.50;99.90;;;;;;4164189;28;20037;-63
2022/11/19 01:54:11;;;;;;;0.10;0.00;;;4.40;99.90;;;;;;4162864;28;20255;-66
2022/11/19 01:56:13;;;;;;;0.20;0.10;;;4.40;99.90;;;;;;4164270;28;20037;-67
2022/11/19 01:58:17;;;;;;;0.00;0.00;;;4.30;99.90;;;;;;4162926;28;20079;-67
2022/11/19 02:00:19;;;;;;;0.67;0.00;;;4.30;99.90;;;;;;4176853;28;20270;-65
2022/11/19 02:02:21;;;;;;;0.03;0.00;;;4.30;99.90;;;;;;4172510;28;20258;-61
2022/11/19 02:04:24;;;;;;;0.43;0.00;;;4.30;99.90;;;;;;4174220;28;20028;-62
2022/11/19 02:06:27;;;;;;;0.37;0.00;;;4.20;99.90;;;;;;4167175;28;20041;-66
2022/11/19 02:08:52;;;;;;;0.00;0.00;;;4.20;99.90;;;;;;4165420;28;20266;-62
2022/11/19 02:11:24;;;;;;;0.13;0.00;;;4.10;99.90;;;;;;4163482;28;20324;-64
2022/11/19 02:13:40;;;;;;;0.50;0.00;;;4.10;99.90;;;;;;4172246;28;20045;-66
2022/11/19 02:16:15;;;;;;;0.83;0.40;;;4.10;99.90;;;;;;4170291;28;20765;-65
2022/11/19 02:18:16;;;;;;;1.93;0.70;;;4.10;99.90;;;;;;4162724;28;20118;-66
2022/11/19 02:20:43;;;;;;;18.53;3.27;;;4.10;99.90;;;;;;4170200;28;20325;-67
2022/11/19 02:22:53;;;;;;;47.47;6.97;;;3.90;99.90;;;;;;4180170;28;20067;-60
2022/11/19 02:25:06;;;;;;;55.47;10.07;;;3.80;99.90;;;;;;4177190;28;20275;-62
2022/11/19 02:27:29;;;;;;;90.80;10.73;;;3.70;99.90;;;;;;4162875;28;20306;-65
2022/11/19 02:29:30;;;;;;;47.90;6.83;;;3.60;99.90;;;;;;4161841;28;20662;-66
2022/11/19 02:31:48;;;;;;;60.43;9.63;;;3.50;99.90;;;;;;4179160;28;20275;-64
2022/11/19 02:33:53;;;;;;;21.97;3.80;;;3.40;99.90;;;;;;4178509;28;20770;-67
2022/11/19 02:36:00;;;;;;;13.73;3.97;;;3.20;99.90;;;;;;4179869;28;20317;-63
2022/11/19 02:38:10;;;;;;;27.20;6.33;;;3.20;99.90;;;;;;4173115;28;20344;-61
2022/11/19 02:40:46;;;;;;;35.13;4.60;;;3.20;99.90;;;;;;4163249;28;20742;-65
2022/11/19 02:42:47;;;;;;;28.13;4.73;;;3.10;99.90;;;;;;4175996;28;20447;-68
2022/11/19 02:44:58;;;;;;;21.80;3.13;;;3.10;99.90;;;;;;4165816;28;20259;-61
2022/11/19 02:47:03;;;;;;;59.15;8.45;;;3.10;99.90;;;;;;4169827;28;20340;-61
2022/11/19 02:49:06;;;;;;;59.97;8.37;;;3.10;99.90;;;;;;4179566;28;20063;-62
2022/11/19 02:51:08;;;;;;;74.00;10.23;;;3.10;99.90;;;;;;4177579;28;20262;-64
2022/11/19 02:53:09;;;;;;;40.73;6.33;;;3.10;99.90;;;;;;4179691;28;20368;-61
2022/11/19 02:55:12;;;;;;;82.53;9.70;;;3.10;99.90;;;;;;4177529;28;20339;-61
2022/11/19 02:57:14;;;;;;;36.17;4.87;;;3.10;99.90;;;;;;4161401;28;20353;-67
2022/11/19 03:06:27;;;;;;;23.07;2.80;;;3.00;99.90;;;;;;4177850;28;20298;-62
2022/11/19 03:08:28;;;;;;;29.87;4.97;;;3.10;99.90;;;;;;4178169;28;20335;-62
2022/11/19 03:10:44;;;;;;;11.97;3.33;;;3.10;99.90;;;;;;4174629;28;20734;-65
2022/11/19 03:12:48;;;;;;;5.77;1.57;;;3.10;99.90;;;;;;4162966;28;20774;-67
2022/11/19 03:17:50;;;;;;;1.80;0.60;;;3.10;99.90;;;;;;4162268;28;20271;-66
2022/11/19 03:20:03;;;;;;;8.80;1.00;;;3.10;99.90;;;;;;4172718;28;20262;-61
2022/11/19 03:22:13;;;;;;;3.37;1.20;;;3.10;99.90;;;;;;4170272;28;20321;-66
2022/11/19 03:24:25;;;;;;;2.55;0.93;;;3.10;99.90;;;;;;4160782;28;20274;-61
2022/11/19 03:26:31;;;;;;;12.33;2.43;;;3.20;99.90;;;;;;4178956;28;20032;-62
2022/11/19 03:28:36;;;;;;;3.90;1.10;;;3.10;99.90;;;;;;4177484;28;20266;-63
2022/11/19 03:30:39;;;;;;;84.23;10.13;;;3.20;99.90;;;;;;4162312;28;20670;-61
2022/11/19 03:32:49;;;;;;;55.20;8.00;;;3.20;99.90;;;;;;4161118;28;20369;-65
2022/11/19 03:34:55;;;;;;;25.67;3.57;;;3.20;99.90;;;;;;4176512;28;20282;-61
2022/11/19 03:37:00;;;;;;;19.27;3.00;;;3.10;99.90;;;;;;4178382;28;20661;-62
2022/11/19 03:39:06;;;;;;;39.73;5.00;;;3.10;99.90;;;;;;4176302;28;20684;-65
2022/11/19 03:41:10;;;;;;;10.20;2.20;;;3.20;99.90;;;;;;4162142;28;20263;-61
2022/11/19 03:43:14;;;;;;;23.73;3.83;;;3.10;99.90;;;;;;4161581;28;20267;-61
2022/11/19 03:45:21;;;;;;;7.70;2.00;;;3.20;99.90;;;;;;4175274;28;20289;-61
2022/11/19 03:47:28;;;;;;;9.30;1.40;;;3.20;99.90;;;;;;4177721;28;20697;-61
2022/11/19 03:49:36;;;;;;;16.53;2.50;;;3.20;99.90;;;;;;4162203;28;20274;-61
2022/11/19 03:52:11;;;;;;;29.63;4.33;;;3.30;99.90;;;;;;4160408;28;20262;-65
2022/11/19 03:54:13;;;;;;;38.03;5.83;;;3.30;99.90;;;;;;4140252;28;20317;-62
2022/11/19 03:56:19;;;;;;;22.40;3.13;;;3.30;99.90;;;;;;4163478;28;20638;-62
2022/11/19 03:58:23;;;;;;;12.03;2.60;;;3.30;99.90;;;;;;4175166;28;20324;-65
2022/11/19 04:00:24;;;;;;;40.83;4.77;;;3.30;99.90;;;;;;4167075;28;20262;-61
2022/11/19 04:02:26;;;;;;;9.77;1.70;;;3.30;99.90;;;;;;4161993;28;20271;-62
2022/11/19 04:04:36;;;;;;;2.83;1.43;;;3.30;99.90;;;;;;4176730;28;20320;-61
2022/11/19 04:06:37;;;;;;;11.70;2.97;;;3.30;99.90;;;;;;4178020;28;20332;-64
2022/11/19 04:08:38;;;;;;;1.80;1.23;;;3.30;99.90;;;;;;4177247;28;20083;-62
2022/11/19 04:10:39;;;;;;;1.23;0.80;;;3.30;99.90;;;;;;4177195;28;20261;-62
2022/11/19 04:12:40;;;;;;;2.80;1.50;;;3.30;99.90;;;;;;4172863;28;20275;-62
2022/11/19 04:14:42;;;;;;;1.23;1.13;;;3.30;99.90;;;;;;4175191;28;20341;-62
2022/11/19 04:16:43;;;;;;;1.33;1.20;;;3.40;99.90;;;;;;4145317;28;20354;-62
2022/11/19 04:18:44;;;;;;;2.87;1.30;;;3.30;99.90;;;;;;4175691;28;20681;-64
2022/11/19 04:20:45;;;;;;;1.17;1.03;;;3.40;99.90;;;;;;4160997;28;20274;-62
2022/11/19 04:22:49;;;;;;;1.40;1.30;;;3.30;99.90;;;;;;4161806;28;20657;-66
2022/11/19 04:24:50;;;;;;;1.40;1.27;;;3.30;99.90;;;;;;4159939;28;20294;-61
2022/11/19 04:26:51;;;;;;;0.97;0.93;;;3.30;99.90;;;;;;4167811;28;20298;-64
2022/11/19 04:28:52;;;;;;;0.87;0.87;;;3.30;99.90;;;;;;4177467;28;20254;-61
2022/11/19 04:30:53;;;;;;;1.50;1.00;;;3.30;99.90;;;;;;4176753;28;20274;-63
2022/11/19 04:32:54;;;;;;;1.53;1.07;;;3.20;99.90;;;;;;4177992;28;21023;-67
2022/11/19 04:34:55;;;;;;;1.37;1.00;;;3.20;99.90;;;;;;4164746;28;20283;-68
2022/11/19 04:36:57;;;;;;;2.27;1.70;;;3.20;99.90;;;;;;4161038;28;20674;-68
2022/11/19 04:38:58;;;;;;;1.20;1.10;;;3.20;99.90;;;;;;4163545;28;20286;-62
2022/11/19 04:40:59;;;;;;;2.20;1.33;;;3.20;99.90;;;;;;4172400;28;20753;-61
2022/11/19 04:43:00;;;;;;;1.30;1.20;;;3.20;99.90;;;;;;4161030;28;20270;-62
2022/11/19 04:45:01;;;;;;;1.63;1.37;;;3.20;99.90;;;;;;4174375;28;20756;-62
2022/11/19 04:47:03;;;;;;;2.50;1.20;;;3.20;99.90;;;;;;4163620;28;20790;-63
2022/11/19 04:49:04;;;;;;;1.77;1.10;;;3.20;99.90;;;;;;4162815;28;20325;-67
2022/11/19 04:51:05;;;;;;;2.30;1.10;;;3.20;99.90;;;;;;4160459;28;20278;-61
2022/11/19 04:53:08;;;;;;;1.20;1.10;;;3.20;99.90;;;;;;4161642;28;20332;-67
2022/11/19 04:55:09;;;;;;;2.97;1.50;;;3.20;99.90;;;;;;4160386;28;20678;-64
2022/11/19 04:57:10;;;;;;;1.93;1.33;;;3.30;99.90;;;;;;4161175;28;20675;-68
2022/11/19 04:59:11;;;;;;;2.87;1.53;;;3.30;99.90;;;;;;4176127;28;20300;-64
2022/11/19 05:01:12;;;;;;;1.70;1.00;;;3.30;99.90;;;;;;4176996;28;20274;-64
2022/11/19 05:03:14;;;;;;;1.77;1.00;;;3.30;99.90;;;;;;4177461;28;20231;-66
2022/11/19 05:05:15;;;;;;;1.10;0.90;;;3.30;99.90;;;;;;4168292;28;20747;-61
2022/11/19 05:07:16;;;;;;;1.47;1.37;;;3.30;99.90;;;;;;4160624;28;20294;-65
2022/11/19 05:09:17;;;;;;;1.40;1.13;;;3.30;99.90;;;;;;4161294;28;20274;-66
2022/11/19 05:11:18;;;;;;;1.03;0.93;;;3.30;99.90;;;;;;4162335;28;20781;-64
2022/11/19 05:13:19;;;;;;;1.53;0.90;;;3.40;99.90;;;;;;4162655;28;20604;-66
2022/11/19 05:15:20;;;;;;;1.60;1.10;;;3.30;99.90;;;;;;4163235;28;20341;-60
2022/11/19 05:17:21;;;;;;;2.13;1.00;;;3.40;99.90;;;;;;4160145;28;20913;-65
2022/11/19 05:19:22;;;;;;;3.23;2.43;;;3.40;99.90;;;;;;4163648;28;20286;-62
2022/11/19 05:21:23;;;;;;;1.77;1.60;;;3.40;99.90;;;;;;4164348;28;20275;-61
2022/11/19 05:23:25;;;;;;;1.20;1.03;;;3.40;99.90;;;;;;4164533;28;20758;-68
2022/11/19 05:25:26;;;;;;;1.93;1.10;;;3.40;99.90;;;;;;4174839;28;20323;-64
2022/11/19 05:27:27;;;;;;;1.30;1.20;;;3.40;99.90;;;;;;4176791;28;20689;-64
2022/11/19 05:29:28;;;;;;;1.30;1.20;;;3.40;99.90;;;;;;4177880;28;20274;-62
2022/11/19 05:31:29;;;;;;;1.50;1.40;;;3.40;99.90;;;;;;4175550;28;20271;-62
2022/11/19 05:33:30;;;;;;;1.90;1.30;;;3.50;99.90;;;;;;4173818;28;20458;-62
2022/11/19 05:35:32;;;;;;;2.03;1.47;;;3.50;99.90;;;;;;4164093;28;20329;-68
2022/11/19 05:37:33;;;;;;;2.27;1.70;;;3.50;99.90;;;;;;4164282;28;20325;-61
2022/11/19 05:39:34;;;;;;;2.30;1.67;;;3.50;99.90;;;;;;4164081;28;20291;-62
2022/11/19 05:41:35;;;;;;;2.60;1.63;;;3.50;99.90;;;;;;4179366;28;20332;-64
2022/11/19 05:43:36;;;;;;;1.87;1.60;;;3.40;99.90;;;;;;4178053;28;20750;-66
2022/11/19 05:45:37;;;;;;;3.37;2.23;;;3.50;99.90;;;;;;4173788;28;20332;-63
2022/11/19 05:47:39;;;;;;;3.97;2.37;;;3.50;99.90;;;;;;4163011;28;20358;-62
2022/11/19 05:49:40;;;;;;;13.27;8.00;;;3.40;99.90;;;;;;4165230;28;20337;-63
2022/11/19 05:51:41;;;;;;;5.17;2.90;;;3.40;99.90;;;;;;4165159;28;20309;-66
2022/11/19 05:53:42;;;;;;;3.80;2.40;;;3.40;99.90;;;;;;4179644;28;20278;-65
2022/11/19 05:55:44;;;;;;;3.10;2.70;;;3.40;99.90;;;;;;4179058;28;20242;-62
2022/11/19 05:57:45;;;;;;;4.10;2.67;;;3.40;99.90;;;;;;4178093;28;20287;-61
2022/11/19 05:59:46;;;;;;;3.40;3.10;;;3.30;99.90;;;;;;4179086;28;20278;-66
2022/11/19 06:01:47;;;;;;;20.37;5.40;;;3.40;99.90;;;;;;4174148;28;20275;-66
2022/11/19 06:03:48;;;;;;;5.97;3.50;;;3.30;99.90;;;;;;4163052;28;20267;-64
2022/11/19 06:05:49;;;;;;;7.73;3.63;;;3.30;99.90;;;;;;4162711;28;20262;-62
2022/11/19 06:07:50;;;;;;;6.23;3.10;;;3.30;99.90;;;;;;4163596;28;20302;-64
2022/11/19 06:09:51;;;;;;;5.43;3.17;;;3.30;99.90;;;;;;4162357;28;21258;-67
2022/11/19 06:11:52;;;;;;;3.63;3.20;;;3.30;99.90;;;;;;4164249;28;20275;-63
2022/11/19 06:13:53;;;;;;;6.17;3.67;;;3.30;99.90;;;;;;4164085;28;20275;-66
2022/11/19 06:15:55;;;;;;;4.27;2.90;;;3.30;99.90;;;;;;4167821;28;20270;-63
2022/11/19 06:17:56;;;;;;;3.20;2.80;;;3.30;99.90;;;;;;4178774;28;20753;-63
2022/11/19 06:19:57;;;;;;;4.13;3.00;;;3.30;99.90;;;;;;4179748;28;20772;-61
2022/11/19 06:21:58;;;;;;;6.70;4.40;;;3.30;99.90;;;;;;4177061;28;20270;-64
2022/11/19 06:23:59;;;;;;;4.40;3.27;;;3.40;99.90;;;;;;4180016;28;20254;-61
2022/11/19 06:26:01;;;;;;;16.70;4.57;;;3.50;99.90;;;;;;4166687;28;20596;-61
2022/11/19 06:28:02;;;;;;;8.03;3.73;;;3.50;99.90;;;;;;4169357;28;20337;-66
2022/11/19 06:30:04;;;;;;;17.57;6.20;;;3.40;99.90;;;;;;4178987;28;20266;-63
2022/11/19 06:32:05;;;;;;;38.20;7.77;;;3.50;99.90;;;;;;4179197;28;20262;-65
2022/11/19 06:34:06;;;;;;;43.10;7.57;;;3.50;99.90;;;;;;4177641;28;20266;-65
2022/11/19 06:36:08;;;;;;;13.00;5.23;;;3.60;99.90;;;;;;4156856;28;20372;-62
2022/11/19 06:38:09;;;;;;;18.17;5.43;;;3.60;99.90;;;;;;4166827;28;20344;-63
2022/11/19 06:40:11;;;;;;;7.30;4.40;;;3.70;99.90;;;;;;4175871;28;20285;-65
2022/11/19 06:44:32;;;;;;;4.67;3.63;;;3.90;99.90;;;;;;4179067;28;20254;-61
2022/11/19 06:46:33;;;;;;;3.77;2.87;;;3.80;99.90;;;;;;4178630;28;20728;-65
2022/11/19 06:48:34;;;;;;;5.07;2.93;;;3.80;99.90;;;;;;4177667;28;20270;-67
2022/11/19 06:50:35;;;;;;;5.33;4.17;;;3.80;99.90;;;;;;4178169;28;20302;-62
2022/11/19 06:52:36;;;;;;;3.90;3.37;;;3.80;99.90;;;;;;4165661;28;20263;-61
2022/11/19 06:54:37;;;;;;;4.37;3.80;;;3.80;99.90;;;;;;4176554;28;20281;-63
2022/11/19 06:56:38;;;;;;;7.00;3.43;;;3.80;99.90;;;;;;4179120;28;20340;-61
2022/11/19 06:58:40;;;;;;;6.10;3.83;;;3.80;99.90;;;;;;4178340;28;20734;-66
2022/11/19 07:00:41;;;;;;;5.47;4.13;;;3.80;99.90;;;;;;4176405;28;20324;-61
2022/11/19 07:02:42;;;;;;;9.60;5.67;;;3.90;99.90;;;;;;4178238;28;20320;-62
2022/11/19 07:04:43;;;;;;;8.97;5.17;;;3.90;99.90;;;;;;4176693;28;21056;-62
2022/11/19 07:06:44;;;;;;;6.67;5.03;;;4.00;99.90;;;;;;4184719;28;20348;-62
2022/11/19 07:08:45;;;;;;;7.77;5.87;;;4.00;99.90;;;;;;4178227;28;20739;-62
2022/11/19 07:10:46;;;;;;;9.37;6.27;;;4.10;99.90;;;;;;4177916;28;20301;-63
2022/11/19 07:12:47;;;;;;;8.87;7.00;;;4.10;99.90;;;;;;4177943;28;20277;-62
2022/11/19 07:14:48;;;;;;;10.30;5.73;;;4.10;99.90;;;;;;4177885;28;20270;-62
2022/11/19 07:16:50;;;;;;;9.27;4.57;;;4.10;99.90;;;;;;4178512;28;20273;-62
2022/11/19 07:18:51;;;;;;;4.37;3.40;;;4.10;99.90;;;;;;4181206;28;20281;-66
2022/11/19 07:20:52;;;;;;;4.07;3.30;;;4.20;99.90;;;;;;4193034;28;20282;-62
2022/11/19 07:22:53;;;;;;;4.00;2.77;;;4.10;99.90;;;;;;4169946;28;20367;-62
2022/11/19 07:24:54;;;;;;;3.50;2.57;;;4.10;99.90;;;;;;4179599;28;20277;-62
2022/11/19 07:26:55;;;;;;;4.23;3.50;;;4.00;99.90;;;;;;4187272;28;20273;-62
2022/11/19 07:29:00;;;;;;;4.20;3.37;;;4.00;99.90;;;;;;4193514;28;20343;-64
2022/11/19 07:31:05;;;;;;;3.67;3.03;;;4.00;99.90;;;;;;4193516;28;20258;-62
2022/11/19 07:33:06;;;;;;;5.83;4.37;;;4.10;99.90;;;;;;4194395;28;20250;-66
2022/11/19 07:35:08;;;;;;;4.47;2.93;;;4.10;99.90;;;;;;4183205;28;20359;-62
2022/11/19 07:37:09;;;;;;;4.80;3.47;;;4.10;99.90;;;;;;4178387;28;20328;-62
2022/11/19 07:39:11;;;;;;;4.20;3.20;;;4.10;99.90;;;;;;4176403;28;20300;-64
2022/11/19 07:43:32;;;;;;;6.00;4.10;;;4.20;99.90;;;;;;4178112;28;20786;-62
2022/11/19 07:45:36;;;;;;;4.97;3.97;;;4.20;99.90;;;;;;4177122;28;20676;-63
2022/11/19 07:47:37;;;;;;;6.43;4.63;;;4.10;99.90;;;;;;4177494;28;20372;-62
2022/11/19 07:49:38;;;;;;;5.87;3.93;;;4.20;99.90;;;;;;4183966;28;20295;-62
2022/11/19 07:51:39;;;;;;;5.03;3.93;;;4.20;99.90;;;;;;4153742;28;20045;-61
2022/11/19 07:53:41;;;;;;;4.10;3.40;;;4.20;99.90;;;;;;4176916;28;20250;-63
2022/11/19 07:55:45;;;;;;;3.97;3.57;;;4.20;99.90;;;;;;4193485;28;20275;-63
2022/11/19 07:57:46;;;;;;;7.93;4.17;;;4.20;99.90;;;;;;4193536;28;20409;-62
2022/11/19 07:59:48;;;;;;;3.60;2.80;;;4.20;99.90;;;;;;4185764;28;20266;-64
2022/11/19 08:01:49;;;;;;;4.97;3.33;;;4.10;99.90;;;;;;4178335;28;20749;-66
2022/11/19 08:03:51;;;;;;;8.23;3.47;;;4.10;99.90;;;;;;4173979;28;20285;-62
2022/11/19 08:05:52;;;;;;;5.80;3.77;;;4.00;99.90;;;;;;4164086;28;20313;-62
2022/11/19 08:07:53;;;;;;;5.50;3.70;;;3.90;99.90;;;;;;4189841;28;20301;-62
2022/11/19 08:09:54;;;;;;;7.60;5.03;;;3.90;99.90;;;;;;4193059;28;20265;-62
2022/11/19 08:11:55;;;;;;;8.60;4.63;;;3.90;99.90;;;;;;4192424;28;20277;-62
2022/11/19 08:14:00;;;;;;;5.93;3.37;;;3.80;99.90;;;;;;4190193;28;20340;-70
2022/11/19 08:16:03;;;;;;;5.80;3.80;;;3.80;99.90;;;;;;4178374;28;20285;-62
2022/11/19 08:18:15;;;;;;;6.10;3.70;;;3.70;99.90;;;;;;4176792;28;20266;-62
2022/11/19 08:20:16;;;;;;;4.60;3.17;;;3.70;99.90;;;;;;4177574;28;20254;-64
2022/11/19 08:22:17;;;;;;;5.43;3.40;;;3.70;99.90;;;;;;4177929;28;20831;-63
2022/11/19 08:24:19;;;;;;;7.00;4.13;;;3.70;99.90;;;;;;4176447;28;20282;-62
2022/11/19 08:26:21;;;;;;;6.07;4.27;;;3.70;99.90;;;;;;4178237;28;20259;-64
2022/11/19 08:28:22;;;;;;;10.87;5.07;;;3.60;99.90;;;;;;4174721;28;20997;-68
2022/11/19 08:30:23;;;;;;;10.70;6.10;;;3.60;99.90;;;;;;4178112;28;20285;-65
2022/11/19 08:32:25;;;;;;;8.70;5.10;;;3.70;99.90;;;;;;4176212;28;20784;-65
2022/11/19 08:34:26;;;;;;;8.47;5.50;;;3.60;99.90;;;;;;4178092;28;20321;-65
2022/11/19 08:36:27;;;;;;;8.07;5.70;;;3.50;99.90;;;;;;4177970;28;20819;-64
2022/11/19 08:38:28;;;;;;;8.63;5.17;;;3.50;99.90;;;;;;4177449;28;20278;-67
2022/11/19 08:40:29;;;;;;;8.17;5.40;;;3.50;99.90;;;;;;4176707;28;20689;-65
2022/11/19 08:44:52;;;;;;;11.03;6.70;;;3.40;99.90;;;;;;4189216;28;20285;-70
2022/11/19 08:46:53;;;;;;;8.30;6.10;;;3.40;99.90;;;;;;4194390;28;20315;-67
2022/11/19 08:48:54;;;;;;;7.67;5.63;;;3.40;99.90;;;;;;4192658;28;20366;-67
2022/11/19 08:50:55;;;;;;;8.40;5.80;;;3.40;99.90;;;;;;4194123;28;20285;-70
2022/11/19 08:53:01;;;;;;;10.17;6.67;;;3.40;99.90;;;;;;4186150;28;20262;-67
2022/11/19 08:55:02;;;;;;;7.83;5.20;;;3.40;99.90;;;;;;4180482;28;20734;-66
2022/11/19 08:57:04;;;;;;;7.13;4.87;;;3.30;99.90;;;;;;4180371;28;20331;-69
2022/11/19 08:59:05;;;;;;;12.03;6.20;;;3.40;99.90;;;;;;4191814;28;20308;-72
2022/11/19 09:01:14;;;;;;;11.83;7.57;;;3.30;99.90;;;;;;4195416;28;20265;-68
2022/11/19 09:03:15;;;;;;;8.53;6.03;;;3.40;99.90;;;;;;4178404;28;20787;-67
2022/11/19 09:05:16;;;;;;;7.90;4.97;;;3.40;99.90;;;;;;4180809;28;20270;-68
2022/11/19 09:07:18;;;;;;;9.43;5.90;;;3.40;99.90;;;;;;4179721;28;20328;-68
2022/11/19 09:09:19;;;;;;;7.57;5.43;;;3.40;99.90;;;;;;4180393;28;20274;-66
2022/11/19 09:11:21;;;;;;;10.40;6.53;;;3.40;99.90;;;;;;4180116;28;20336;-71
2022/11/19 09:13:23;;;;;;;9.53;5.93;;;3.40;99.90;;;;;;4179724;28;20282;-67
2022/11/19 09:15:24;;;;;;;11.30;6.63;;;3.50;99.90;;;;;;4178706;28;20296;-65
2022/11/19 09:17:25;;;;;;;13.83;7.57;;;3.50;99.90;;;;;;4179545;28;20274;-63
2022/11/19 09:19:26;;;;;;;11.90;7.23;;;3.40;99.90;;;;;;4178747;28;20311;-65
2022/11/19 09:21:27;;;;;;;17.50;9.93;;;3.40;99.90;;;;;;4179597;28;20328;-63
2022/11/19 09:23:28;;;;;;;13.87;7.93;;;3.30;99.90;;;;;;4167973;28;20275;-69
2022/11/19 09:25:29;;;;;;;17.00;9.30;;;3.30;99.90;;;;;;4162734;28;20263;-63
2022/11/19 09:27:30;;;;;;;17.10;10.33;;;3.30;99.90;;;;;;4171891;28;20643;-67
2022/11/19 09:29:32;;;;;;;17.87;9.60;;;3.30;99.90;;;;;;4179370;28;20270;-66
2022/11/19 09:31:33;;;;;;;18.47;9.97;;;3.30;99.90;;;;;;4178165;28;20374;-69
2022/11/19 09:33:37;;;;;;;16.93;9.07;;;3.30;99.90;;;;;;4178740;28;20300;-67
2022/11/19 09:35:38;;;;;;;14.63;6.77;;;3.30;99.90;;;;;;4179032;28;20273;-63
2022/11/19 09:37:40;;;;;;;9.47;6.57;;;3.30;99.90;;;;;;4179159;28;20278;-66
2022/11/19 09:39:41;;;;;;;9.80;6.67;;;3.30;99.90;;;;;;4179062;28;20282;-62
2022/11/19 09:42:15;;;;;;;12.67;8.57;;;3.30;99.90;;;;;;4178065;28;20277;-66
2022/11/19 09:44:37;;;;;;;10.40;7.13;;;3.40;99.90;;;;;;4179298;28;20258;-62
2022/11/19 09:47:30;;;;;;;12.77;7.73;;;3.30;99.90;;;;;;4186643;28;20277;-61
2022/11/19 09:49:41;;;;;;;10.63;6.63;;;3.30;99.90;;;;;;4095319;28;20270;-61
2022/11/19 09:51:51;;;;;;;11.27;7.27;;;3.40;99.90;;;;;;4142126;28;20278;-61
2022/11/19 09:54:17;;;;;;;12.40;7.50;;;3.30;99.90;;;;;;4165495;28;20336;-63
2022/11/19 09:56:26;;;;;;;12.17;6.77;;;3.30;99.90;;;;;;4168786;28;20098;-63
2022/11/19 09:58:40;;;;;;;14.60;7.57;;;3.40;99.90;;;;;;4178154;28;20319;-62
2022/11/19 10:00:43;;;;;;;11.27;6.97;;;3.40;99.90;;;;;;4179076;28;20267;-62
2022/11/19 10:02:44;;;;;;;11.53;6.10;;;3.50;99.90;;;;;;4179432;28;20328;-62
2022/11/19 10:04:47;;;;;;;10.27;7.00;;;3.50;99.90;;;;;;4180718;28;20285;-61
2022/11/19 10:07:22;;;;;;;11.23;7.23;;;3.50;99.90;;;;;;4177650;28;20727;-61
2022/11/19 10:09:50;;;;;;;11.20;6.63;;;3.50;99.90;;;;;;4187262;28;20396;-71
2022/11/19 10:12:05;;;;;;;11.43;7.47;;;3.50;99.90;;;;;;4111216;28;1259850;-62
2022/11/19 10:14:48;;;;;;;11.20;6.90;;;3.50;99.90;;;;;;4196643;28;20285;-62
2022/11/19 10:16:54;;;;;;;13.00;7.27;;;3.60;99.90;;;;;;4139934;28;20671;-64
2022/11/19 10:19:19;;;;;;;15.73;10.73;;;3.60;99.90;;;;;;4195959;28;20327;-62
2022/11/19 10:21:32;;;;;;;16.03;10.93;;;3.60;99.90;;;;;;4181299;28;20319;-62
2022/11/19 10:24:02;;;;;;;18.67;12.20;;;3.60;99.90;;;;;;4193667;28;20257;-62
2022/11/19 10:26:09;;;;;;;19.55;11.65;;;3.60;99.90;;;;;;4162850;28;20275;-62
2022/11/19 10:28:18;;;;;;;15.23;10.27;;;3.70;99.90;;;;;;4161789;28;20095;-62
2022/11/19 10:30:23;;;;;;;17.57;11.57;;;3.70;99.90;;;;;;4166252;28;20258;-61
2022/11/19 10:32:33;;;;;;;15.17;9.50;;;3.70;99.90;;;;;;4195125;28;20249;-70
2022/11/19 10:34:35;;;;;;;16.23;10.50;;;3.70;99.90;;;;;;4195810;28;20323;-65
2022/11/19 10:36:54;;;;;;;19.03;11.30;;;3.70;99.90;;;;;;4195185;28;20032;-70
2022/11/19 10:39:23;;;;;;;17.50;10.33;;;3.70;99.90;;;;;;4178034;28;20789;-63
2022/11/19 10:41:33;;;;;;;14.47;9.80;;;3.80;99.90;;;;;;4194131;28;20266;-65
2022/11/19 10:43:45;;;;;;;14.80;7.77;;;3.80;99.90;;;;;;4196377;28;20270;-62
2022/11/19 10:45:46;;;;;;;13.87;8.73;;;3.80;99.90;;;;;;4193216;28;20258;-63
2022/11/19 10:47:57;;;;;;;9.80;7.20;;;3.90;99.90;;;;;;4189667;28;20286;-67
2022/11/19 10:49:58;;;;;;;;;;;3.90;99.90;;;;;;4189459;28;20282;-67
2022/11/19 10:51:58;;;;;;;;;;;3.90;99.90;;;;;;4195992;28;20008;-63
2022/11/19 10:54:03;;;;;;;;;;;3.90;99.90;;;;;;4193365;28;19947;-62
2022/11/19 10:56:09;;;;;;;7.43;4.93;;;3.90;99.90;;;;;;4176701;28;20450;-62
2022/11/19 10:58:21;;;;;;;7.57;5.10;;;3.90;99.90;;;;;;4194847;28;20311;-63
2022/11/19 11:00:22;;;;;;;8.67;5.23;;;3.80;99.90;;;;;;4194861;28;20269;-62
2022/11/19 11:02:34;;;;;;;10.07;5.57;;;3.90;99.90;;;;;;4193063;28;20282;-63
2022/11/19 11:04:59;;;;;;;9.07;4.83;;;3.90;99.90;;;;;;4188153;28;20327;-63
2022/11/19 11:07:02;;;;;;;6.80;4.60;;;3.90;99.90;;;;;;4178066;28;20262;-64
2022/11/19 11:09:03;;;;;;;12.97;6.10;;;3.90;99.90;;;;;;4178369;28;20293;-62
2022/11/19 11:11:04;;;;;;;7.13;4.80;;;3.90;99.90;;;;;;4178636;28;20270;-66
2022/11/19 11:15:33;;;;;;;6.60;4.80;;;4.00;99.90;;;;;;4183845;28;20293;-67
2022/11/19 11:17:35;;;;;;;10.37;5.00;;;4.10;99.90;;;;;;4177955;28;20286;-62
2022/11/19 11:19:36;;;;;;;6.50;4.60;;;4.10;99.90;;;;;;4185606;28;20795;-62